createdAt,value
2017-12-20T00:01:03.168Z,102728.21
2017-12-20T00:03:30.757Z,102732.18
2017-12-20T00:05:58.416Z,102737.24
2017-12-20T00:08:26.013Z,102731.10
2017-12-20T00:10:53.604Z,102733.66
2017-12-20T00:13:21.224Z,102735.97
2017-12-20T00:15:48.892Z,102738.82
2017-12-20T00:18:16.512Z,102733.26
2017-12-20T00:20:44.087Z,102732.33
2017-12-20T00:23:11.697Z,102729.30
2017-12-20T00:25:39.309Z,102741.19
2017-12-20T00:28:06.901Z,102741.50
2017-12-20T00:30:34.528Z,102738.86
2017-12-20T00:33:02.131Z,102741.50
2017-12-20T00:35:29.759Z,102748.11
2017-12-20T00:37:57.376Z,102744.77
2017-12-20T00:40:24.967Z,102745.41
2017-12-20T00:42:52.631Z,102744.95
2017-12-20T00:45:20.217Z,102740.66
2017-12-20T00:47:47.812Z,102740.02
2017-12-20T00:50:15.437Z,102742.28
2017-12-20T00:52:43.033Z,102745.06
2017-12-20T00:55:10.660Z,102739.44
2017-12-20T00:57:38.263Z,102741.27
2017-12-20T01:00:05.849Z,102735.58
2017-12-20T01:02:33.484Z,102735.84
2017-12-20T01:05:01.086Z,102740.00
2017-12-20T01:07:28.775Z,102735.86
2017-12-20T01:09:56.409Z,102731.55
2017-12-20T01:12:24.006Z,102733.98
2017-12-20T01:14:51.612Z,102735.53
2017-12-20T01:17:19.225Z,102735.49
2017-12-20T01:19:46.849Z,102739.88
2017-12-20T01:22:14.456Z,102740.47
2017-12-20T01:24:42.045Z,102736.93
2017-12-20T01:27:09.953Z,102744.86
2017-12-20T01:29:37.532Z,102744.63
2017-12-20T01:32:05.164Z,102737.73
2017-12-20T01:34:32.764Z,102741.28
2017-12-20T01:37:00.354Z,102736.31
2017-12-20T01:39:27.980Z,102748.55
2017-12-20T01:41:55.574Z,102749.75
2017-12-20T01:44:23.206Z,102749.55
2017-12-20T01:46:50.884Z,102748.36
2017-12-20T01:49:18.504Z,102739.98
2017-12-20T01:51:46.152Z,102751.74
2017-12-20T01:54:13.757Z,102753.45
2017-12-20T01:56:41.396Z,102756.09
2017-12-20T01:59:08.990Z,102764.05
2017-12-20T02:01:36.582Z,102753.06
2017-12-20T02:04:04.485Z,102760.67
2017-12-20T02:06:32.355Z,102753.69
2017-12-20T02:09:00.627Z,102752.20
2017-12-20T02:11:28.220Z,102751.20
2017-12-20T02:13:55.815Z,102748.67
2017-12-20T02:16:23.520Z,102750.97
2017-12-20T02:18:51.115Z,102753.76
2017-12-20T02:21:18.847Z,102748.40
2017-12-20T02:23:46.482Z,102749.25
2017-12-20T02:26:14.076Z,102758.30
2017-12-20T02:28:41.700Z,102763.70
2017-12-20T02:31:09.320Z,102759.70
2017-12-20T02:33:36.959Z,102763.16
2017-12-20T02:36:04.588Z,102765.84
2017-12-20T02:38:39.125Z,102769.88
2017-12-20T02:41:09.500Z,102775.43
2017-12-20T02:43:42.032Z,102770.70
2017-12-20T02:46:09.726Z,102762.03
2017-12-20T02:48:37.332Z,102756.16
2017-12-20T02:51:04.980Z,102760.55
2017-12-20T02:53:32.577Z,102759.34
2017-12-20T02:56:00.232Z,102755.86
2017-12-20T02:58:28.123Z,102748.23
2017-12-20T03:00:55.718Z,102748.28
2017-12-20T03:03:23.381Z,102750.84
2017-12-20T03:05:50.982Z,102748.91
2017-12-20T03:08:18.636Z,102755.28
2017-12-20T03:10:46.311Z,102750.16
2017-12-20T03:13:13.905Z,102734.14
2017-12-20T03:15:41.517Z,102737.09
2017-12-20T03:18:09.104Z,102731.28
2017-12-20T03:20:37.096Z,102733.34
2017-12-20T03:23:04.691Z,102726.81
2017-12-20T03:25:32.299Z,102736.71
2017-12-20T03:27:59.928Z,102731.67
2017-12-20T03:30:27.558Z,102734.92
2017-12-20T03:32:55.205Z,102729.92
2017-12-20T03:35:22.796Z,102727.12
2017-12-20T03:37:50.408Z,102725.45
2017-12-20T03:40:18.296Z,102732.28
2017-12-20T03:42:45.899Z,102725.17
2017-12-20T03:45:13.828Z,102726.50
2017-12-20T03:47:41.409Z,102732.55
2017-12-20T03:50:08.990Z,102731.73
2017-12-20T03:52:36.615Z,102731.55
2017-12-20T03:55:04.208Z,102729.72
2017-12-20T03:57:31.832Z,102730.77
2017-12-20T03:59:59.411Z,102730.16
2017-12-20T04:02:27.044Z,102727.08
2017-12-20T04:04:54.692Z,102730.11
2017-12-20T04:07:22.315Z,102728.05
2017-12-20T04:09:49.927Z,102731.66
2017-12-20T04:12:17.534Z,102743.23
2017-12-20T04:14:45.128Z,102744.20
2017-12-20T04:17:12.748Z,102743.98
2017-12-20T04:19:40.318Z,102737.52
2017-12-20T04:22:07.935Z,102734.77
2017-12-20T04:24:35.783Z,102740.33
2017-12-20T04:27:03.369Z,102740.88
2017-12-20T04:29:30.993Z,102740.33
2017-12-20T04:31:58.585Z,102740.55
2017-12-20T04:34:26.273Z,102745.95
2017-12-20T04:36:53.870Z,102752.20
2017-12-20T04:39:21.468Z,102750.30
2017-12-20T04:41:49.166Z,102753.95
2017-12-20T04:44:17.748Z,102759.97
2017-12-20T04:46:45.372Z,102759.59
2017-12-20T04:49:12.965Z,102759.31
2017-12-20T04:51:40.846Z,102757.22
2017-12-20T04:54:08.864Z,102767.40
2017-12-20T04:56:36.498Z,102758.23
2017-12-20T04:59:04.129Z,102763.05
2017-12-20T05:01:31.732Z,102758.85
2017-12-20T05:03:59.563Z,102756.17
2017-12-20T05:06:27.173Z,102756.48
2017-12-20T05:08:54.836Z,102757.45
2017-12-20T05:11:22.475Z,102754.93
2017-12-20T05:13:50.417Z,102753.64
2017-12-20T05:16:18.389Z,102756.72
2017-12-20T05:18:46.012Z,102753.95
2017-12-20T05:21:13.595Z,102757.61
2017-12-20T05:23:41.218Z,102748.75
2017-12-20T05:26:09.172Z,102744.41
2017-12-20T05:28:37.116Z,102748.79
2017-12-20T05:31:04.735Z,102745.98
2017-12-20T05:33:32.328Z,102758.50
2017-12-20T05:35:59.992Z,102763.13
2017-12-20T05:38:27.581Z,102765.06
2017-12-20T05:40:55.168Z,102771.00
2017-12-20T05:43:22.832Z,102765.83
2017-12-20T05:45:50.425Z,102784.44
2017-12-20T05:48:18.059Z,102783.94
2017-12-20T05:50:45.648Z,102779.51
2017-12-20T05:53:13.547Z,102777.96
2017-12-20T05:55:41.156Z,102776.13
2017-12-20T05:58:08.735Z,102777.34
2017-12-20T06:00:37.198Z,102781.60
2017-12-20T06:03:05.118Z,102782.20
2017-12-20T06:05:32.696Z,102785.88
2017-12-20T06:08:00.646Z,102784.80
2017-12-20T06:10:28.223Z,102782.62
2017-12-20T06:12:56.278Z,102792.76
2017-12-20T06:15:23.849Z,102796.92
2017-12-20T06:17:51.443Z,102794.55
2017-12-20T06:20:19.060Z,102796.44
2017-12-20T06:22:46.940Z,102791.50
2017-12-20T06:25:14.555Z,102792.23
2017-12-20T06:27:42.133Z,102797.69
2017-12-20T06:30:09.724Z,102797.61
2017-12-20T06:32:37.327Z,102809.30
2017-12-20T06:35:04.912Z,102816.30
2017-12-20T06:37:32.805Z,102811.52
2017-12-20T06:40:00.398Z,102812.56
2017-12-20T06:42:27.998Z,102817.84
2017-12-20T06:44:55.730Z,102815.16
2017-12-20T06:47:23.700Z,102819.17
2017-12-20T06:49:51.324Z,102826.71
2017-12-20T06:52:18.994Z,102828.03
2017-12-20T06:54:46.600Z,102825.16
2017-12-20T06:57:14.236Z,102827.02
2017-12-20T06:59:41.845Z,102824.89
2017-12-20T07:02:09.440Z,102826.41
2017-12-20T07:04:37.414Z,102834.98
2017-12-20T07:07:05.013Z,102826.36
2017-12-20T07:09:32.613Z,102819.80
2017-12-20T07:12:00.501Z,102820.77
2017-12-20T07:14:28.104Z,102826.91
2017-12-20T07:16:55.763Z,102826.05
2017-12-20T07:19:23.393Z,102831.65
2017-12-20T07:21:51.009Z,102833.66
2017-12-20T07:24:18.632Z,102825.16
2017-12-20T07:26:46.229Z,102824.11
2017-12-20T07:29:14.145Z,102830.75
2017-12-20T07:31:41.725Z,102829.31
2017-12-20T07:34:09.313Z,102837.59
2017-12-20T07:36:37.153Z,102834.09
2017-12-20T07:39:04.745Z,102833.05
2017-12-20T07:41:32.397Z,102833.02
2017-12-20T07:44:00.037Z,102833.09
2017-12-20T07:46:27.628Z,102837.83
2017-12-20T07:48:55.229Z,102837.48
2017-12-20T07:51:22.891Z,102836.31
2017-12-20T07:53:50.512Z,102840.13
2017-12-20T07:56:18.419Z,102843.39
2017-12-20T07:58:46.079Z,102843.00
2017-12-20T08:01:13.682Z,102848.83
2017-12-20T08:03:41.304Z,102848.52
2017-12-20T08:06:08.945Z,102849.95
2017-12-20T08:08:36.524Z,102845.75
2017-12-20T08:11:04.113Z,102849.25
2017-12-20T08:13:31.979Z,102854.17
2017-12-20T08:15:59.572Z,102857.10
2017-12-20T08:18:27.424Z,102856.41
2017-12-20T08:20:55.274Z,102854.88
2017-12-20T08:23:23.109Z,102860.67
2017-12-20T08:25:50.719Z,102857.09
2017-12-20T08:28:18.306Z,102854.09
2017-12-20T08:30:46.028Z,102860.78
2017-12-20T08:33:13.616Z,102863.73
2017-12-20T08:35:41.456Z,102863.00
2017-12-20T08:38:09.325Z,102863.38
2017-12-20T08:40:37.080Z,102871.35
2017-12-20T08:43:04.704Z,102873.05
2017-12-20T08:45:32.293Z,102878.72
2017-12-20T08:47:59.916Z,102881.42
2017-12-20T08:50:27.603Z,102879.81
2017-12-20T08:52:58.265Z,102885.62
2017-12-20T08:55:25.993Z,102888.19
2017-12-20T08:57:53.957Z,102886.31
2017-12-20T09:00:21.536Z,102891.20
2017-12-20T09:02:49.285Z,102892.41
2017-12-20T09:05:16.924Z,102901.39
2017-12-20T09:07:44.542Z,102894.45
2017-12-20T09:10:12.425Z,102886.48
2017-12-20T09:12:40.040Z,102886.56
2017-12-20T09:15:07.957Z,102885.09
2017-12-20T09:17:35.550Z,102891.11
2017-12-20T09:20:03.215Z,102893.88
2017-12-20T09:22:30.792Z,102896.86
2017-12-20T09:24:58.384Z,102901.21
2017-12-20T09:27:25.999Z,102897.20
2017-12-20T09:29:53.707Z,102890.48
2017-12-20T09:32:21.336Z,102899.50
2017-12-20T09:34:48.922Z,102903.90
2017-12-20T09:37:16.548Z,102890.84
2017-12-20T09:39:44.490Z,102895.98
2017-12-20T09:42:12.154Z,102897.73
2017-12-20T09:44:39.781Z,102902.51
2017-12-20T09:47:07.604Z,102898.41
2017-12-20T09:49:35.182Z,102895.18
2017-12-20T09:52:02.826Z,102896.73
2017-12-20T09:54:30.432Z,102896.27
2017-12-20T09:56:58.477Z,102893.25
2017-12-20T09:59:26.120Z,102884.39
2017-12-20T10:01:54.816Z,102883.77
2017-12-20T10:04:22.465Z,102878.06
2017-12-20T10:06:50.089Z,102882.02
2017-12-20T10:09:17.728Z,102883.65
2017-12-20T10:11:45.351Z,102885.59
2017-12-20T10:14:13.010Z,102882.73
2017-12-20T10:16:40.670Z,102885.99
2017-12-20T10:19:08.270Z,102883.54
2017-12-20T10:21:35.900Z,102875.53
2017-12-20T10:24:03.488Z,102879.41
2017-12-20T10:26:31.114Z,102875.48
2017-12-20T10:28:58.776Z,102873.02
2017-12-20T10:31:26.759Z,102863.83
2017-12-20T10:33:54.714Z,102863.72
2017-12-20T10:36:22.581Z,102863.21
2017-12-20T10:38:50.448Z,102858.47
2017-12-20T10:41:18.220Z,102853.13
2017-12-20T10:43:45.792Z,102848.42
2017-12-20T10:46:13.417Z,102852.02
2017-12-20T10:48:40.995Z,102852.52
2017-12-20T10:51:08.594Z,102854.59
2017-12-20T10:53:36.214Z,102858.38
2017-12-20T10:56:04.100Z,102854.52
2017-12-20T10:58:31.730Z,102851.16
2017-12-20T11:00:59.312Z,102849.91
2017-12-20T11:03:26.900Z,102846.02
2017-12-20T11:05:54.504Z,102846.17
2017-12-20T11:08:22.103Z,102843.19
2017-12-20T11:10:49.733Z,102839.28
2017-12-20T11:13:17.324Z,102839.63
2017-12-20T11:15:44.908Z,102844.64
2017-12-20T11:18:12.532Z,102843.24
2017-12-20T11:20:40.132Z,102851.88
2017-12-20T11:23:07.753Z,102842.42
2017-12-20T11:25:35.332Z,102836.53
2017-12-20T11:28:02.971Z,102839.31
2017-12-20T11:30:30.576Z,102837.02
2017-12-20T11:32:58.173Z,102827.80
2017-12-20T11:35:26.084Z,102828.50
2017-12-20T11:37:53.664Z,102828.59
2017-12-20T11:40:21.260Z,102829.86
2017-12-20T11:42:48.870Z,102836.45
2017-12-20T11:45:16.475Z,102827.98
2017-12-20T11:47:44.089Z,102831.22
2017-12-20T11:50:11.669Z,102836.70
2017-12-20T11:52:39.265Z,102837.77
2017-12-20T11:55:06.868Z,102838.09
2017-12-20T11:57:34.440Z,102842.02
2017-12-20T12:00:02.068Z,102837.75
2017-12-20T12:02:29.652Z,102836.09
2017-12-20T12:04:57.258Z,102830.00
2017-12-20T12:07:24.964Z,102833.63
2017-12-20T12:09:52.561Z,102819.32
2017-12-20T12:12:20.184Z,102822.27
2017-12-20T12:14:48.090Z,102821.58
2017-12-20T12:17:15.681Z,102825.06
2017-12-20T12:19:43.290Z,102824.20
2017-12-20T12:22:10.888Z,102820.77
2017-12-20T12:24:38.529Z,102816.36
2017-12-20T12:27:06.364Z,102817.57
2017-12-20T12:29:33.946Z,102815.53
2017-12-20T12:32:01.559Z,102815.81
2017-12-20T12:34:29.158Z,102818.78
2017-12-20T12:36:56.820Z,102814.92
2017-12-20T12:39:24.405Z,102811.45
2017-12-20T12:41:51.998Z,102813.03
2017-12-20T12:44:19.944Z,102817.23
2017-12-20T12:46:47.591Z,102817.45
2017-12-20T12:49:15.217Z,102811.41
2017-12-20T12:51:42.792Z,102814.38
2017-12-20T12:54:10.394Z,102816.69
2017-12-20T12:56:38.009Z,102817.69
2017-12-20T12:59:05.598Z,102816.39
2017-12-20T13:01:33.228Z,102815.67
2017-12-20T13:04:00.817Z,102816.53
2017-12-20T13:06:28.412Z,102811.06
2017-12-20T13:08:56.020Z,102807.12
2017-12-20T13:11:23.632Z,102806.05
2017-12-20T13:13:51.271Z,102802.68
2017-12-20T13:16:19.149Z,102803.75
2017-12-20T13:18:46.745Z,102797.99
2017-12-20T13:21:14.364Z,102794.77
2017-12-20T13:23:41.967Z,102789.37
2017-12-20T13:26:09.899Z,102789.89
2017-12-20T13:28:37.500Z,102789.63
2017-12-20T13:31:05.089Z,102793.46
2017-12-20T13:33:32.719Z,102789.68
2017-12-20T13:36:00.556Z,102790.38
2017-12-20T13:38:28.181Z,102793.59
2017-12-20T13:40:55.814Z,102794.91
2017-12-20T13:43:23.401Z,102791.91
2017-12-20T13:45:51.016Z,102797.13
2017-12-20T13:48:18.620Z,102789.86
2017-12-20T13:50:46.252Z,102791.55
2017-12-20T13:53:14.098Z,102785.80
2017-12-20T13:55:41.706Z,102794.50
2017-12-20T13:58:09.321Z,102798.56
2017-12-20T14:00:37.187Z,102797.14
2017-12-20T14:03:04.834Z,102801.80
2017-12-20T14:05:32.430Z,102802.00
2017-12-20T14:08:00.029Z,102798.02
2017-12-20T14:10:27.660Z,102794.69
2017-12-20T14:12:55.248Z,102796.91
2017-12-20T14:15:22.848Z,102785.39
2017-12-20T14:17:50.461Z,102782.13
2017-12-20T14:20:18.080Z,102782.70
2017-12-20T14:22:45.680Z,102788.80
2017-12-20T14:25:13.320Z,102787.84
2017-12-20T14:27:41.184Z,102786.63
2017-12-20T14:30:08.766Z,102789.48
2017-12-20T14:32:36.712Z,102784.30
2017-12-20T14:35:04.314Z,102796.32
2017-12-20T14:37:31.953Z,102797.95
2017-12-20T14:39:59.555Z,102797.02
2017-12-20T14:42:27.157Z,102794.50
2017-12-20T14:44:54.764Z,102791.38
2017-12-20T14:47:23.294Z,102798.02
2017-12-20T14:49:51.275Z,102796.13
2017-12-20T14:52:18.856Z,102795.81
2017-12-20T14:54:46.445Z,102796.59
2017-12-20T14:57:14.372Z,102799.75
2017-12-20T14:59:42.009Z,102794.19
2017-12-20T15:02:09.634Z,102787.70
2017-12-20T15:04:37.228Z,102784.40
2017-12-20T15:07:04.816Z,102779.63
2017-12-20T15:09:32.424Z,102785.99
2017-12-20T15:12:00.345Z,102780.74
2017-12-20T15:14:27.979Z,102781.79
2017-12-20T15:16:55.564Z,102781.83
2017-12-20T15:19:23.144Z,102779.34
2017-12-20T15:21:50.760Z,102778.55
2017-12-20T15:24:18.365Z,102770.52
2017-12-20T15:26:46.317Z,102775.81
2017-12-20T15:29:14.184Z,102783.88
2017-12-20T15:31:41.764Z,102781.58
2017-12-20T15:34:10.013Z,102782.15
2017-12-20T15:36:37.620Z,102788.64
2017-12-20T15:39:05.248Z,102792.47
2017-12-20T15:41:33.124Z,102794.86
2017-12-20T15:44:00.758Z,102787.82
2017-12-20T15:46:28.371Z,102791.55
2017-12-20T15:48:56.226Z,102786.81
2017-12-20T15:51:24.176Z,102779.80
2017-12-20T15:53:51.777Z,102781.22
2017-12-20T15:56:19.378Z,102783.58
2017-12-20T15:58:46.989Z,102781.12
2017-12-20T16:01:14.583Z,102778.41
2017-12-20T16:03:42.245Z,102777.09
2017-12-20T16:06:09.833Z,102778.61
2017-12-20T16:08:37.443Z,102778.13
2017-12-20T16:11:05.058Z,102780.00
2017-12-20T16:13:32.644Z,102778.05
2017-12-20T16:16:00.337Z,102778.25
2017-12-20T16:18:27.949Z,102767.71
2017-12-20T16:20:55.832Z,102763.03
2017-12-20T16:23:23.462Z,102766.41
2017-12-20T16:25:51.040Z,102765.08
2017-12-20T16:28:18.681Z,102764.30
2017-12-20T16:30:46.273Z,102767.94
2017-12-20T16:33:13.876Z,102762.38
2017-12-20T16:35:41.909Z,102762.51
2017-12-20T16:38:09.526Z,102753.83
2017-12-20T16:40:37.737Z,102754.41
2017-12-20T16:43:05.617Z,102746.70
2017-12-20T16:45:33.244Z,102741.19
2017-12-20T16:48:01.028Z,102744.83
2017-12-20T16:50:28.667Z,102745.28
2017-12-20T16:52:56.774Z,102743.41
2017-12-20T16:55:24.397Z,102736.76
2017-12-20T16:57:52.316Z,102736.33
2017-12-20T17:00:19.928Z,102733.43
2017-12-20T17:02:47.543Z,102729.84
2017-12-20T17:05:15.509Z,102724.56
2017-12-20T17:07:43.095Z,102726.33
2017-12-20T17:10:10.679Z,102721.42
2017-12-20T17:12:38.320Z,102735.63
2017-12-20T17:15:06.266Z,102739.17
2017-12-20T17:17:33.905Z,102742.53
2017-12-20T17:20:01.528Z,102743.02
2017-12-20T17:22:29.128Z,102747.94
2017-12-20T17:24:56.750Z,102742.00
2017-12-20T17:27:24.332Z,102743.84
2017-12-20T17:29:51.993Z,102744.83
2017-12-20T17:32:19.843Z,102748.70
2017-12-20T17:34:47.775Z,102756.66
2017-12-20T17:37:15.390Z,102750.86
2017-12-20T17:39:43.009Z,102758.17
2017-12-20T17:42:11.325Z,102748.70
2017-12-20T17:44:38.963Z,102754.80
2017-12-20T17:47:06.876Z,102750.72
2017-12-20T17:49:34.536Z,102748.08
2017-12-20T17:52:02.181Z,102739.63
2017-12-20T17:54:29.961Z,102743.38
2017-12-20T17:56:57.572Z,102742.37
2017-12-20T17:59:25.428Z,102747.73
2017-12-20T18:01:53.048Z,102746.91
2017-12-20T18:04:20.655Z,102749.56
2017-12-20T18:06:48.331Z,102747.18
2017-12-20T18:09:15.955Z,102747.77
2017-12-20T18:11:43.950Z,102746.66
2017-12-20T18:14:11.583Z,102746.83
2017-12-20T18:16:39.190Z,102742.02
2017-12-20T18:19:06.835Z,102737.16
2017-12-20T18:21:34.460Z,102733.78
2017-12-20T18:24:02.076Z,102732.50
2017-12-20T18:26:29.732Z,102737.16
2017-12-20T18:28:57.380Z,102746.88
2017-12-20T18:31:25.044Z,102746.34
2017-12-20T18:33:52.631Z,102752.73
2017-12-20T18:36:20.471Z,102748.85
2017-12-20T18:38:48.114Z,102750.30
2017-12-20T18:41:15.716Z,102754.88
2017-12-20T18:43:43.381Z,102751.28
2017-12-20T18:46:10.985Z,102753.33
2017-12-20T18:48:38.602Z,102761.53
2017-12-20T18:51:06.233Z,102755.05
2017-12-20T18:53:33.859Z,102759.91
2017-12-20T18:56:01.499Z,102753.50
2017-12-20T18:58:29.124Z,102749.63
2017-12-20T19:00:56.716Z,102747.45
2017-12-20T19:03:24.344Z,102748.73
2017-12-20T19:05:51.942Z,102750.66
2017-12-20T19:08:19.895Z,102745.91
2017-12-20T19:10:49.223Z,102745.05
2017-12-20T19:13:16.896Z,102751.80
2017-12-20T19:15:44.525Z,102742.25
2017-12-20T19:18:12.147Z,102737.00
2017-12-20T19:20:39.841Z,102744.55
2017-12-20T19:23:07.721Z,102743.18
2017-12-20T19:25:35.321Z,102742.28
2017-12-20T19:28:03.065Z,102733.31
2017-12-20T19:30:30.680Z,102728.75
2017-12-20T19:32:58.304Z,102729.48
2017-12-20T19:35:25.980Z,102723.30
2017-12-20T19:37:53.574Z,102722.88
2017-12-20T19:40:21.204Z,102731.86
2017-12-20T19:42:50.263Z,102733.36
2017-12-20T19:45:17.922Z,102729.78
2017-12-20T19:47:45.543Z,102721.55
2017-12-20T19:50:13.165Z,102712.89
2017-12-20T19:52:40.781Z,102713.09
2017-12-20T19:55:08.384Z,102701.75
2017-12-20T19:57:36.000Z,102710.16
2017-12-20T20:00:03.629Z,102718.22
2017-12-20T20:02:31.231Z,102707.81
2017-12-20T20:04:58.868Z,102718.17
2017-12-20T20:07:26.469Z,102707.89
2017-12-20T20:09:54.092Z,102704.23
2017-12-20T20:12:21.676Z,102711.98
2017-12-20T20:14:49.561Z,102714.25
2017-12-20T20:17:17.429Z,102705.51
2017-12-20T20:19:45.076Z,102701.53
2017-12-20T20:22:12.793Z,102699.83
2017-12-20T20:24:40.396Z,102697.48
2017-12-20T20:27:08.018Z,102693.34
2017-12-20T20:29:35.949Z,102694.97
2017-12-20T20:32:03.586Z,102693.73
2017-12-20T20:34:31.424Z,102691.94
2017-12-20T20:36:59.114Z,102692.92
2017-12-20T20:39:26.700Z,102701.75
2017-12-20T20:41:54.338Z,102697.31
2017-12-20T20:44:22.246Z,102695.38
2017-12-20T20:46:50.222Z,102689.80
2017-12-20T20:49:17.829Z,102688.87
2017-12-20T20:51:45.695Z,102681.10
2017-12-20T20:54:13.309Z,102672.01
2017-12-20T20:56:40.919Z,102672.44
2017-12-20T20:59:08.753Z,102671.80
2017-12-20T21:01:36.707Z,102665.06
2017-12-20T21:04:04.312Z,102661.34
2017-12-20T21:06:32.022Z,102656.27
2017-12-20T21:08:59.622Z,102660.28
2017-12-20T21:11:27.553Z,102656.99
2017-12-20T21:13:55.150Z,102660.53
2017-12-20T21:16:22.752Z,102668.51
2017-12-20T21:18:50.409Z,102663.39
2017-12-20T21:21:18.049Z,102664.59
2017-12-20T21:23:45.712Z,102668.69
2017-12-20T21:26:13.357Z,102667.95
2017-12-20T21:28:41.224Z,102671.11
2017-12-20T21:31:08.867Z,102669.63
2017-12-20T21:33:37.558Z,102664.67
2017-12-20T21:36:05.317Z,102666.98
2017-12-20T21:38:33.000Z,102657.30
2017-12-20T21:41:00.619Z,102666.59
2017-12-20T21:43:28.253Z,102661.81
2017-12-20T21:45:55.875Z,102656.83
2017-12-20T21:48:23.529Z,102659.21
2017-12-20T21:50:51.127Z,102659.25
2017-12-20T21:53:18.730Z,102658.02
2017-12-20T21:55:46.456Z,102663.34
2017-12-20T21:58:14.073Z,102663.22
2017-12-20T22:00:41.704Z,102649.09
2017-12-20T22:03:09.348Z,102650.42
2017-12-20T22:05:36.961Z,102653.02
2017-12-20T22:08:04.551Z,102648.62
2017-12-20T22:10:32.192Z,102647.77
2017-12-20T22:12:59.788Z,102647.99
2017-12-20T22:15:27.725Z,102644.02
2017-12-20T22:17:55.335Z,102643.42
2017-12-20T22:20:22.965Z,102639.33
2017-12-20T22:22:50.613Z,102637.53
2017-12-20T22:25:18.221Z,102634.77
2017-12-20T22:27:45.830Z,102634.45
2017-12-20T22:30:13.798Z,102633.73
2017-12-20T22:32:41.380Z,102632.38
2017-12-20T22:35:09.001Z,102629.59
2017-12-20T22:37:36.598Z,102620.64
2017-12-20T22:40:04.203Z,102623.70
2017-12-20T22:42:31.928Z,102622.64
2017-12-20T22:44:59.779Z,102624.94
2017-12-20T22:47:27.414Z,102630.75
2017-12-20T22:49:55.304Z,102640.00
2017-12-20T22:52:22.888Z,102644.13
2017-12-20T22:54:50.531Z,102631.91
2017-12-20T22:57:18.121Z,102624.98
2017-12-20T22:59:45.767Z,102612.13
2017-12-20T23:02:13.633Z,102612.09
2017-12-20T23:04:41.214Z,102613.41
2017-12-20T23:07:08.849Z,102609.70
2017-12-20T23:09:36.443Z,102609.78
2017-12-20T23:12:04.078Z,102608.59
2017-12-20T23:14:31.676Z,102607.82
2017-12-20T23:16:59.277Z,102604.99
2017-12-20T23:19:26.893Z,102596.84
2017-12-20T23:21:54.502Z,102592.45
2017-12-20T23:24:22.128Z,102586.30
2017-12-20T23:26:49.707Z,102585.23
2017-12-20T23:29:17.307Z,102583.88
2017-12-20T23:31:44.920Z,102573.23
2017-12-20T23:34:12.529Z,102575.75
2017-12-20T23:36:40.149Z,102580.73
2017-12-20T23:39:07.793Z,102577.05
2017-12-20T23:41:35.384Z,102570.17
2017-12-20T23:44:03.012Z,102574.01
2017-12-20T23:46:30.643Z,102571.50
2017-12-20T23:48:58.306Z,102576.75
2017-12-20T23:51:26.376Z,102581.77
2017-12-20T23:53:53.975Z,102574.74
2017-12-20T23:56:21.590Z,102574.14
2017-12-20T23:58:49.171Z,102575.89
